sensor_id;sensor_type;location;lat;lon;timestamp;P1;durP1;ratioP1;P2;durP2;ratioP2
23288;SDS011;11813;50.834;4.280;2022-08-06T00:01:49;4.30;;;1.50;;
23288;SDS011;11813;50.834;4.280;2022-08-06T00:04:14;6.30;;;1.43;;
23288;SDS011;11813;50.834;4.280;2022-08-06T00:06:40;8.73;;;2.07;;
23288;SDS011;11813;50.834;4.280;2022-08-06T00:09:06;8.20;;;1.60;;
23288;SDS011;11813;50.834;4.280;2022-08-06T00:11:32;4.67;;;1.70;;
23288;SDS011;11813;50.834;4.280;2022-08-06T00:13:57;3.97;;;1.70;;
23288;SDS011;11813;50.834;4.280;2022-08-06T00:16:23;4.43;;;1.80;;
23288;SDS011;11813;50.834;4.280;2022-08-06T00:18:49;6.83;;;1.53;;
23288;SDS011;11813;50.834;4.280;2022-08-06T00:21:15;7.87;;;2.20;;
23288;SDS011;11813;50.834;4.280;2022-08-06T00:23:41;3.87;;;1.50;;
23288;SDS011;11813;50.834;4.280;2022-08-06T00:26:06;3.87;;;1.90;;
23288;SDS011;11813;50.834;4.280;2022-08-06T00:28:32;4.07;;;1.73;;
23288;SDS011;11813;50.834;4.280;2022-08-06T00:31:01;3.43;;;1.90;;
23288;SDS011;11813;50.834;4.280;2022-08-06T00:33:28;3.77;;;1.77;;
23288;SDS011;11813;50.834;4.280;2022-08-06T00:35:54;4.30;;;1.80;;
23288;SDS011;11813;50.834;4.280;2022-08-06T00:38:19;3.90;;;1.67;;
23288;SDS011;11813;50.834;4.280;2022-08-06T00:40:45;3.83;;;1.60;;
23288;SDS011;11813;50.834;4.280;2022-08-06T00:43:12;4.23;;;1.83;;
23288;SDS011;11813;50.834;4.280;2022-08-06T00:45:37;6.17;;;2.20;;
23288;SDS011;11813;50.834;4.280;2022-08-06T00:48:03;2.53;;;1.87;;
23288;SDS011;11813;50.834;4.280;2022-08-06T00:50:29;3.73;;;1.80;;
23288;SDS011;11813;50.834;4.280;2022-08-06T00:52:56;3.10;;;1.73;;
23288;SDS011;11813;50.834;4.280;2022-08-06T00:55:21;2.33;;;1.50;;
23288;SDS011;11813;50.834;4.280;2022-08-06T00:57:47;3.50;;;1.77;;
23288;SDS011;11813;50.834;4.280;2022-08-06T01:00:13;2.97;;;1.97;;
23288;SDS011;11813;50.834;4.280;2022-08-06T01:02:38;3.70;;;1.50;;
23288;SDS011;11813;50.834;4.280;2022-08-06T01:05:04;2.87;;;1.90;;
23288;SDS011;11813;50.834;4.280;2022-08-06T01:07:30;3.60;;;1.97;;
23288;SDS011;11813;50.834;4.280;2022-08-06T01:09:56;2.53;;;1.50;;
23288;SDS011;11813;50.834;4.280;2022-08-06T01:12:22;2.07;;;1.67;;
23288;SDS011;11813;50.834;4.280;2022-08-06T01:14:47;3.00;;;1.70;;
23288;SDS011;11813;50.834;4.280;2022-08-06T01:28:10;5.10;;;1.63;;
23288;SDS011;11813;50.834;4.280;2022-08-06T01:30:44;5.53;;;1.63;;
23288;SDS011;11813;50.834;4.280;2022-08-06T01:33:17;3.27;;;1.67;;
23288;SDS011;11813;50.834;4.280;2022-08-06T01:35:51;3.50;;;1.80;;
23288;SDS011;11813;50.834;4.280;2022-08-06T01:38:26;6.43;;;2.07;;
23288;SDS011;11813;50.834;4.280;2022-08-06T01:40:57;3.43;;;2.20;;
23288;SDS011;11813;50.834;4.280;2022-08-06T01:43:26;2.50;;;1.57;;
23288;SDS011;11813;50.834;4.280;2022-08-06T01:45:54;5.23;;;1.80;;
23288;SDS011;11813;50.834;4.280;2022-08-06T01:48:23;6.13;;;2.20;;
23288;SDS011;11813;50.834;4.280;2022-08-06T01:50:52;4.50;;;1.83;;
23288;SDS011;11813;50.834;4.280;2022-08-06T01:53:22;4.83;;;1.90;;
23288;SDS011;11813;50.834;4.280;2022-08-06T01:55:54;2.30;;;1.73;;
23288;SDS011;11813;50.834;4.280;2022-08-06T01:58:27;5.33;;;1.90;;
23288;SDS011;11813;50.834;4.280;2022-08-06T02:01:00;3.40;;;1.97;;
23288;SDS011;11813;50.834;4.280;2022-08-06T02:03:39;3.13;;;1.90;;
23288;SDS011;11813;50.834;4.280;2022-08-06T02:06:11;2.57;;;1.60;;
23288;SDS011;11813;50.834;4.280;2022-08-06T02:08:39;2.67;;;1.70;;
23288;SDS011;11813;50.834;4.280;2022-08-06T02:11:07;3.53;;;2.10;;
23288;SDS011;11813;50.834;4.280;2022-08-06T02:13:34;5.33;;;2.20;;
23288;SDS011;11813;50.834;4.280;2022-08-06T02:16:02;4.73;;;2.10;;
23288;SDS011;11813;50.834;4.280;2022-08-06T02:18:31;4.00;;;2.03;;
23288;SDS011;11813;50.834;4.280;2022-08-06T02:21:02;5.70;;;2.00;;
23288;SDS011;11813;50.834;4.280;2022-08-06T02:23:32;6.73;;;1.93;;
23288;SDS011;11813;50.834;4.280;2022-08-06T02:26:00;2.87;;;1.87;;
23288;SDS011;11813;50.834;4.280;2022-08-06T02:28:28;2.60;;;1.67;;
23288;SDS011;11813;50.834;4.280;2022-08-06T02:30:56;3.70;;;1.90;;
23288;SDS011;11813;50.834;4.280;2022-08-06T02:33:23;4.80;;;1.97;;
23288;SDS011;11813;50.834;4.280;2022-08-06T02:35:51;6.90;;;2.27;;
23288;SDS011;11813;50.834;4.280;2022-08-06T02:38:22;4.03;;;1.87;;
23288;SDS011;11813;50.834;4.280;2022-08-06T02:40:53;7.17;;;2.00;;
23288;SDS011;11813;50.834;4.280;2022-08-06T02:43:30;6.30;;;2.07;;
23288;SDS011;11813;50.834;4.280;2022-08-06T02:46:02;2.43;;;1.83;;
23288;SDS011;11813;50.834;4.280;2022-08-06T02:48:39;4.67;;;2.00;;
23288;SDS011;11813;50.834;4.280;2022-08-06T02:51:10;6.77;;;2.17;;
23288;SDS011;11813;50.834;4.280;2022-08-06T02:53:43;3.53;;;1.97;;
23288;SDS011;11813;50.834;4.280;2022-08-06T02:56:21;7.43;;;2.20;;
23288;SDS011;11813;50.834;4.280;2022-08-06T02:58:49;6.67;;;2.27;;
23288;SDS011;11813;50.834;4.280;2022-08-06T03:01:20;6.30;;;1.93;;
23288;SDS011;11813;50.834;4.280;2022-08-06T03:03:49;6.53;;;1.80;;
23288;SDS011;11813;50.834;4.280;2022-08-06T03:06:18;4.67;;;2.10;;
23288;SDS011;11813;50.834;4.280;2022-08-06T03:08:45;5.07;;;2.20;;
23288;SDS011;11813;50.834;4.280;2022-08-06T03:11:12;4.07;;;1.90;;
23288;SDS011;11813;50.834;4.280;2022-08-06T03:13:40;5.83;;;1.90;;
23288;SDS011;11813;50.834;4.280;2022-08-06T03:16:08;5.27;;;2.00;;
23288;SDS011;11813;50.834;4.280;2022-08-06T03:18:35;2.87;;;1.80;;
23288;SDS011;11813;50.834;4.280;2022-08-06T03:21:02;4.93;;;2.37;;
23288;SDS011;11813;50.834;4.280;2022-08-06T03:23:30;4.30;;;2.13;;
23288;SDS011;11813;50.834;4.280;2022-08-06T03:25:57;3.90;;;1.93;;
23288;SDS011;11813;50.834;4.280;2022-08-06T03:28:24;4.60;;;2.07;;
23288;SDS011;11813;50.834;4.280;2022-08-06T03:30:50;3.30;;;2.03;;
23288;SDS011;11813;50.834;4.280;2022-08-06T03:33:17;6.40;;;2.30;;
23288;SDS011;11813;50.834;4.280;2022-08-06T03:35:44;2.00;;;1.80;;
23288;SDS011;11813;50.834;4.280;2022-08-06T03:38:11;4.27;;;1.97;;
23288;SDS011;11813;50.834;4.280;2022-08-06T03:40:38;3.70;;;2.03;;
23288;SDS011;11813;50.834;4.280;2022-08-06T03:43:07;5.20;;;1.90;;
23288;SDS011;11813;50.834;4.280;2022-08-06T03:45:35;5.00;;;2.13;;
23288;SDS011;11813;50.834;4.280;2022-08-06T03:48:03;5.83;;;2.40;;
23288;SDS011;11813;50.834;4.280;2022-08-06T03:50:33;3.80;;;2.17;;
23288;SDS011;11813;50.834;4.280;2022-08-06T03:53:06;4.57;;;2.40;;
23288;SDS011;11813;50.834;4.280;2022-08-06T03:55:35;5.33;;;2.20;;
23288;SDS011;11813;50.834;4.280;2022-08-06T03:58:04;5.77;;;2.33;;
23288;SDS011;11813;50.834;4.280;2022-08-06T04:00:33;2.20;;;2.00;;
23288;SDS011;11813;50.834;4.280;2022-08-06T04:03:03;3.73;;;2.27;;
23288;SDS011;11813;50.834;4.280;2022-08-06T04:05:30;3.50;;;2.10;;
23288;SDS011;11813;50.834;4.280;2022-08-06T04:07:58;2.63;;;2.00;;
23288;SDS011;11813;50.834;4.280;2022-08-06T04:10:36;5.40;;;2.50;;
23288;SDS011;11813;50.834;4.280;2022-08-06T04:13:10;2.63;;;1.97;;
23288;SDS011;11813;50.834;4.280;2022-08-06T04:15:38;7.27;;;2.30;;
23288;SDS011;11813;50.834;4.280;2022-08-06T04:18:05;4.23;;;2.50;;
23288;SDS011;11813;50.834;4.280;2022-08-06T04:20:33;4.03;;;2.60;;
23288;SDS011;11813;50.834;4.280;2022-08-06T04:23:00;3.93;;;2.37;;
23288;SDS011;11813;50.834;4.280;2022-08-06T04:25:27;3.57;;;2.37;;
23288;SDS011;11813;50.834;4.280;2022-08-06T04:27:55;5.77;;;2.30;;
23288;SDS011;11813;50.834;4.280;2022-08-06T04:30:23;4.03;;;2.03;;
23288;SDS011;11813;50.834;4.280;2022-08-06T04:32:52;5.20;;;2.40;;
23288;SDS011;11813;50.834;4.280;2022-08-06T04:35:18;4.23;;;2.10;;
23288;SDS011;11813;50.834;4.280;2022-08-06T04:37:46;3.23;;;2.37;;
23288;SDS011;11813;50.834;4.280;2022-08-06T04:40:12;5.00;;;2.47;;
23288;SDS011;11813;50.834;4.280;2022-08-06T04:42:39;5.20;;;2.30;;
23288;SDS011;11813;50.834;4.280;2022-08-06T04:45:06;4.70;;;2.10;;
23288;SDS011;11813;50.834;4.280;2022-08-06T04:47:33;6.90;;;2.60;;
23288;SDS011;11813;50.834;4.280;2022-08-06T04:50:00;5.17;;;2.27;;
23288;SDS011;11813;50.834;4.280;2022-08-06T04:52:27;4.53;;;2.40;;
23288;SDS011;11813;50.834;4.280;2022-08-06T04:54:53;3.47;;;2.37;;
23288;SDS011;11813;50.834;4.280;2022-08-06T04:57:19;7.57;;;2.60;;
23288;SDS011;11813;50.834;4.280;2022-08-06T04:59:45;5.07;;;2.73;;
23288;SDS011;11813;50.834;4.280;2022-08-06T05:02:11;4.53;;;2.50;;
23288;SDS011;11813;50.834;4.280;2022-08-06T05:04:37;7.03;;;2.00;;
23288;SDS011;11813;50.834;4.280;2022-08-06T05:07:11;5.03;;;2.60;;
23288;SDS011;11813;50.834;4.280;2022-08-06T05:09:45;9.30;;;3.00;;
23288;SDS011;11813;50.834;4.280;2022-08-06T05:12:25;6.77;;;2.77;;
23288;SDS011;11813;50.834;4.280;2022-08-06T05:17:47;6.13;;;2.50;;
23288;SDS011;11813;50.834;4.280;2022-08-06T05:20:16;6.80;;;2.53;;
23288;SDS011;11813;50.834;4.280;2022-08-06T05:22:44;5.47;;;3.40;;
23288;SDS011;11813;50.834;4.280;2022-08-06T05:25:14;5.80;;;3.30;;
23288;SDS011;11813;50.834;4.280;2022-08-06T05:27:40;4.43;;;2.30;;
23288;SDS011;11813;50.834;4.280;2022-08-06T05:30:07;4.97;;;2.23;;
23288;SDS011;11813;50.834;4.280;2022-08-06T05:32:42;4.23;;;2.30;;
23288;SDS011;11813;50.834;4.280;2022-08-06T05:35:12;3.30;;;2.30;;
23288;SDS011;11813;50.834;4.280;2022-08-06T05:37:38;7.77;;;2.83;;
23288;SDS011;11813;50.834;4.280;2022-08-06T05:40:04;2.90;;;2.50;;
23288;SDS011;11813;50.834;4.280;2022-08-06T05:42:31;7.03;;;2.97;;
23288;SDS011;11813;50.834;4.280;2022-08-06T05:44:57;8.67;;;2.63;;
23288;SDS011;11813;50.834;4.280;2022-08-06T05:47:23;5.07;;;2.60;;
23288;SDS011;11813;50.834;4.280;2022-08-06T05:49:53;3.53;;;2.83;;
23288;SDS011;11813;50.834;4.280;2022-08-06T05:55:11;7.40;;;2.70;;
23288;SDS011;11813;50.834;4.280;2022-08-06T05:57:50;8.73;;;2.90;;
23288;SDS011;11813;50.834;4.280;2022-08-06T06:00:20;4.23;;;3.00;;
23288;SDS011;11813;50.834;4.280;2022-08-06T06:02:49;5.57;;;3.00;;
23288;SDS011;11813;50.834;4.280;2022-08-06T06:05:18;7.17;;;3.30;;
23288;SDS011;11813;50.834;4.280;2022-08-06T06:07:45;4.50;;;3.50;;
23288;SDS011;11813;50.834;4.280;2022-08-06T06:10:12;6.50;;;3.57;;
23288;SDS011;11813;50.834;4.280;2022-08-06T06:12:39;8.33;;;3.50;;
23288;SDS011;11813;50.834;4.280;2022-08-06T06:15:06;5.43;;;2.30;;
23288;SDS011;11813;50.834;4.280;2022-08-06T06:26:05;7.30;;;3.33;;
23288;SDS011;11813;50.834;4.280;2022-08-06T06:37:21;6.77;;;3.17;;
23288;SDS011;11813;50.834;4.280;2022-08-06T06:40:00;8.40;;;3.43;;
23288;SDS011;11813;50.834;4.280;2022-08-06T06:42:37;6.10;;;2.60;;
23288;SDS011;11813;50.834;4.280;2022-08-06T06:47:52;5.23;;;3.40;;
23288;SDS011;11813;50.834;4.280;2022-08-06T06:50:28;9.97;;;3.40;;
23288;SDS011;11813;50.834;4.280;2022-08-06T06:52:57;9.17;;;3.00;;
23288;SDS011;11813;50.834;4.280;2022-08-06T06:55:25;5.93;;;2.67;;
23288;SDS011;11813;50.834;4.280;2022-08-06T06:58:06;7.63;;;3.90;;
23288;SDS011;11813;50.834;4.280;2022-08-06T07:00:39;6.33;;;3.30;;
23288;SDS011;11813;50.834;4.280;2022-08-06T07:03:06;10.47;;;3.07;;
23288;SDS011;11813;50.834;4.280;2022-08-06T07:05:33;4.87;;;3.40;;
23288;SDS011;11813;50.834;4.280;2022-08-06T07:08:01;8.53;;;3.80;;
23288;SDS011;11813;50.834;4.280;2022-08-06T07:10:29;9.07;;;3.37;;
23288;SDS011;11813;50.834;4.280;2022-08-06T07:12:56;9.17;;;3.57;;
23288;SDS011;11813;50.834;4.280;2022-08-06T07:15:24;7.33;;;3.17;;
23288;SDS011;11813;50.834;4.280;2022-08-06T07:17:50;8.60;;;3.93;;
23288;SDS011;11813;50.834;4.280;2022-08-06T07:20:22;9.87;;;3.37;;
23288;SDS011;11813;50.834;4.280;2022-08-06T07:22:51;8.63;;;3.10;;
23288;SDS011;11813;50.834;4.280;2022-08-06T07:25:18;5.63;;;3.30;;
23288;SDS011;11813;50.834;4.280;2022-08-06T07:27:46;8.57;;;2.97;;
23288;SDS011;11813;50.834;4.280;2022-08-06T07:30:16;6.47;;;3.47;;
23288;SDS011;11813;50.834;4.280;2022-08-06T07:32:44;8.47;;;2.90;;
23288;SDS011;11813;50.834;4.280;2022-08-06T07:35:11;7.23;;;3.10;;
23288;SDS011;11813;50.834;4.280;2022-08-06T07:37:40;6.07;;;2.83;;
23288;SDS011;11813;50.834;4.280;2022-08-06T07:40:09;4.83;;;2.77;;
23288;SDS011;11813;50.834;4.280;2022-08-06T07:42:39;14.03;;;4.37;;
23288;SDS011;11813;50.834;4.280;2022-08-06T07:45:06;8.30;;;2.87;;
23288;SDS011;11813;50.834;4.280;2022-08-06T07:47:35;7.07;;;2.33;;
23288;SDS011;11813;50.834;4.280;2022-08-06T07:50:04;11.33;;;2.47;;
23288;SDS011;11813;50.834;4.280;2022-08-06T07:52:34;5.13;;;2.20;;
23288;SDS011;11813;50.834;4.280;2022-08-06T07:55:01;9.27;;;2.90;;
23288;SDS011;11813;50.834;4.280;2022-08-06T07:57:27;5.83;;;1.60;;
23288;SDS011;11813;50.834;4.280;2022-08-06T07:59:55;5.67;;;2.20;;
23288;SDS011;11813;50.834;4.280;2022-08-06T08:02:21;5.60;;;1.27;;
23288;SDS011;11813;50.834;4.280;2022-08-06T08:04:48;5.97;;;1.47;;
23288;SDS011;11813;50.834;4.280;2022-08-06T08:07:32;4.20;;;1.50;;
23288;SDS011;11813;50.834;4.280;2022-08-06T08:09:58;2.20;;;1.00;;
23288;SDS011;11813;50.834;4.280;2022-08-06T08:12:25;3.67;;;0.90;;
23288;SDS011;11813;50.834;4.280;2022-08-06T08:14:52;2.60;;;1.30;;
23288;SDS011;11813;50.834;4.280;2022-08-06T08:17:18;5.77;;;1.27;;
23288;SDS011;11813;50.834;4.280;2022-08-06T08:19:43;5.38;;;1.20;;
23288;SDS011;11813;50.834;4.280;2022-08-06T08:22:10;5.23;;;1.33;;
23288;SDS011;11813;50.834;4.280;2022-08-06T08:24:38;2.05;;;1.10;;
23288;SDS011;11813;50.834;4.280;2022-08-06T08:27:06;1.87;;;0.87;;
23288;SDS011;11813;50.834;4.280;2022-08-06T08:29:34;4.35;;;0.98;;
23288;SDS011;11813;50.834;4.280;2022-08-06T08:32:00;4.38;;;1.17;;
23288;SDS011;11813;50.834;4.280;2022-08-06T08:34:26;4.80;;;1.15;;
23288;SDS011;11813;50.834;4.280;2022-08-06T08:36:52;5.68;;;1.42;;
23288;SDS011;11813;50.834;4.280;2022-08-06T08:39:18;5.93;;;1.20;;
23288;SDS011;11813;50.834;4.280;2022-08-06T08:41:45;8.07;;;1.60;;
23288;SDS011;11813;50.834;4.280;2022-08-06T08:44:14;3.15;;;0.90;;
23288;SDS011;11813;50.834;4.280;2022-08-06T08:46:44;1.90;;;0.80;;
23288;SDS011;11813;50.834;4.280;2022-08-06T08:49:16;3.50;;;1.10;;
23288;SDS011;11813;50.834;4.280;2022-08-06T08:51:49;4.88;;;1.17;;
23288;SDS011;11813;50.834;4.280;2022-08-06T08:54:18;4.38;;;1.45;;
23288;SDS011;11813;50.834;4.280;2022-08-06T08:56:47;1.15;;;1.00;;
23288;SDS011;11813;50.834;4.280;2022-08-06T08:59:14;1.30;;;0.82;;
23288;SDS011;11813;50.834;4.280;2022-08-06T09:01:40;3.60;;;1.10;;
23288;SDS011;11813;50.834;4.280;2022-08-06T09:04:06;3.50;;;1.40;;
23288;SDS011;11813;50.834;4.280;2022-08-06T09:06:33;3.63;;;1.15;;
23288;SDS011;11813;50.834;4.280;2022-08-06T09:09:01;4.03;;;0.90;;
23288;SDS011;11813;50.834;4.280;2022-08-06T09:11:31;2.10;;;0.70;;
23288;SDS011;11813;50.834;4.280;2022-08-06T09:14:04;3.80;;;0.90;;
23288;SDS011;11813;50.834;4.280;2022-08-06T09:16:31;3.72;;;1.08;;
23288;SDS011;11813;50.834;4.280;2022-08-06T09:18:58;3.92;;;1.20;;
23288;SDS011;11813;50.834;4.280;2022-08-06T09:21:25;1.95;;;1.50;;
23288;SDS011;11813;50.834;4.280;2022-08-06T09:23:51;5.75;;;0.98;;
23288;SDS011;11813;50.834;4.280;2022-08-06T09:26:16;2.55;;;0.80;;
23288;SDS011;11813;50.834;4.280;2022-08-06T09:28:43;3.42;;;0.90;;
23288;SDS011;11813;50.834;4.280;2022-08-06T09:31:15;3.33;;;1.10;;
23288;SDS011;11813;50.834;4.280;2022-08-06T09:33:52;3.80;;;1.25;;
23288;SDS011;11813;50.834;4.280;2022-08-06T09:36:18;3.65;;;1.27;;
23288;SDS011;11813;50.834;4.280;2022-08-06T09:38:47;3.25;;;1.15;;
23288;SDS011;11813;50.834;4.280;2022-08-06T09:41:14;6.38;;;1.70;;
23288;SDS011;11813;50.834;4.280;2022-08-06T09:43:40;6.93;;;1.33;;
23288;SDS011;11813;50.834;4.280;2022-08-06T09:46:07;4.88;;;1.08;;
23288;SDS011;11813;50.834;4.280;2022-08-06T09:48:33;2.72;;;1.20;;
23288;SDS011;11813;50.834;4.280;2022-08-06T09:50:59;4.63;;;1.45;;
23288;SDS011;11813;50.834;4.280;2022-08-06T09:53:25;2.45;;;1.00;;
23288;SDS011;11813;50.834;4.280;2022-08-06T09:55:54;4.45;;;1.10;;
23288;SDS011;11813;50.834;4.280;2022-08-06T09:58:34;2.25;;;1.15;;
23288;SDS011;11813;50.834;4.280;2022-08-06T10:01:11;1.42;;;0.90;;
23288;SDS011;11813;50.834;4.280;2022-08-06T10:03:40;2.20;;;1.00;;
23288;SDS011;11813;50.834;4.280;2022-08-06T10:06:07;6.15;;;1.23;;
23288;SDS011;11813;50.834;4.280;2022-08-06T10:08:37;1.88;;;0.98;;
23288;SDS011;11813;50.834;4.280;2022-08-06T10:11:04;5.78;;;1.15;;
23288;SDS011;11813;50.834;4.280;2022-08-06T10:13:30;10.23;;;2.05;;
23288;SDS011;11813;50.834;4.280;2022-08-06T10:15:58;3.75;;;1.40;;
23288;SDS011;11813;50.834;4.280;2022-08-06T10:18:32;2.17;;;1.08;;
23288;SDS011;11813;50.834;4.280;2022-08-06T10:21:07;5.10;;;1.08;;
23288;SDS011;11813;50.834;4.280;2022-08-06T10:23:35;5.68;;;1.50;;
23288;SDS011;11813;50.834;4.280;2022-08-06T10:26:08;2.20;;;0.80;;
23288;SDS011;11813;50.834;4.280;2022-08-06T10:28:36;4.80;;;1.02;;
23288;SDS011;11813;50.834;4.280;2022-08-06T10:31:03;2.63;;;1.00;;
23288;SDS011;11813;50.834;4.280;2022-08-06T10:33:31;3.05;;;1.00;;
23288;SDS011;11813;50.834;4.280;2022-08-06T10:36:23;2.92;;;1.05;;
23288;SDS011;11813;50.834;4.280;2022-08-06T10:38:53;1.40;;;1.00;;
23288;SDS011;11813;50.834;4.280;2022-08-06T10:41:20;3.67;;;1.23;;
23288;SDS011;11813;50.834;4.280;2022-08-06T10:43:47;3.35;;;0.95;;
23288;SDS011;11813;50.834;4.280;2022-08-06T10:46:13;2.33;;;0.75;;
23288;SDS011;11813;50.834;4.280;2022-08-06T10:48:44;5.45;;;0.93;;
23288;SDS011;11813;50.834;4.280;2022-08-06T10:51:12;1.83;;;0.82;;
23288;SDS011;11813;50.834;4.280;2022-08-06T10:53:39;5.20;;;1.17;;
23288;SDS011;11813;50.834;4.280;2022-08-06T10:56:07;8.80;;;1.10;;
23288;SDS011;11813;50.834;4.280;2022-08-06T10:58:35;2.85;;;0.80;;
23288;SDS011;11813;50.834;4.280;2022-08-06T11:01:35;0.82;;;0.50;;
23288;SDS011;11813;50.834;4.280;2022-08-06T11:04:17;1.30;;;0.63;;
23288;SDS011;11813;50.834;4.280;2022-08-06T11:06:56;2.97;;;0.80;;
23288;SDS011;11813;50.834;4.280;2022-08-06T11:09:44;5.07;;;1.00;;
23288;SDS011;11813;50.834;4.280;2022-08-06T11:12:46;1.35;;;0.60;;
23288;SDS011;11813;50.834;4.280;2022-08-06T11:15:23;2.40;;;0.90;;
23288;SDS011;11813;50.834;4.280;2022-08-06T11:17:50;1.45;;;0.85;;
23288;SDS011;11813;50.834;4.280;2022-08-06T11:23:21;3.03;;;0.82;;
23288;SDS011;11813;50.834;4.280;2022-08-06T11:25:45;2.08;;;0.75;;
23288;SDS011;11813;50.834;4.280;2022-08-06T11:28:17;5.78;;;1.00;;
23288;SDS011;11813;50.834;4.280;2022-08-06T11:31:03;1.63;;;0.93;;
23288;SDS011;11813;50.834;4.280;2022-08-06T11:35:59;3.83;;;0.80;;
23288;SDS011;11813;50.834;4.280;2022-08-06T11:41:50;2.67;;;0.65;;
23288;SDS011;11813;50.834;4.280;2022-08-06T11:44:09;3.08;;;0.88;;
23288;SDS011;11813;50.834;4.280;2022-08-06T11:46:36;4.20;;;0.70;;
23288;SDS011;11813;50.834;4.280;2022-08-06T11:59:38;1.17;;;0.85;;
23288;SDS011;11813;50.834;4.280;2022-08-06T12:07:39;1.60;;;0.82;;
23288;SDS011;11813;50.834;4.280;2022-08-06T12:10:10;1.05;;;1.00;;
23288;SDS011;11813;50.834;4.280;2022-08-06T12:12:39;2.47;;;1.13;;
23288;SDS011;11813;50.834;4.280;2022-08-06T12:17:36;4.55;;;1.70;;
23288;SDS011;11813;50.834;4.280;2022-08-06T12:20:31;3.50;;;1.05;;
23288;SDS011;11813;50.834;4.280;2022-08-06T12:23:05;4.70;;;4.25;;
23288;SDS011;11813;50.834;4.280;2022-08-06T12:28:00;3.97;;;2.08;;
23288;SDS011;11813;50.834;4.280;2022-08-06T12:30:26;3.13;;;0.95;;
23288;SDS011;11813;50.834;4.280;2022-08-06T12:33:05;3.17;;;0.95;;
23288;SDS011;11813;50.834;4.280;2022-08-06T12:35:33;2.20;;;1.00;;
23288;SDS011;11813;50.834;4.280;2022-08-06T12:37:59;2.67;;;1.02;;
23288;SDS011;11813;50.834;4.280;2022-08-06T12:40:24;2.22;;;1.10;;
23288;SDS011;11813;50.834;4.280;2022-08-06T12:45:25;3.08;;;1.00;;
23288;SDS011;11813;50.834;4.280;2022-08-06T12:48:02;1.48;;;1.10;;
23288;SDS011;11813;50.834;4.280;2022-08-06T12:50:30;3.33;;;1.45;;
23288;SDS011;11813;50.834;4.280;2022-08-06T12:55:33;1.38;;;0.88;;
23288;SDS011;11813;50.834;4.280;2022-08-06T12:58:10;2.22;;;0.95;;
23288;SDS011;11813;50.834;4.280;2022-08-06T13:00:38;1.58;;;1.42;;
23288;SDS011;11813;50.834;4.280;2022-08-06T13:03:05;3.13;;;1.25;;
23288;SDS011;11813;50.834;4.280;2022-08-06T13:05:32;1.50;;;0.70;;
23288;SDS011;11813;50.834;4.280;2022-08-06T13:07:59;1.65;;;0.80;;
23288;SDS011;11813;50.834;4.280;2022-08-06T13:10:25;1.20;;;0.80;;
23288;SDS011;11813;50.834;4.280;2022-08-06T13:12:55;2.55;;;0.75;;
23288;SDS011;11813;50.834;4.280;2022-08-06T13:15:22;1.17;;;0.93;;
23288;SDS011;11813;50.834;4.280;2022-08-06T13:18:05;2.33;;;1.00;;
23288;SDS011;11813;50.834;4.280;2022-08-06T13:20:39;1.77;;;1.20;;
23288;SDS011;11813;50.834;4.280;2022-08-06T13:23:07;2.47;;;0.93;;
23288;SDS011;11813;50.834;4.280;2022-08-06T13:25:44;2.33;;;1.38;;
23288;SDS011;11813;50.834;4.280;2022-08-06T13:28:11;2.85;;;1.10;;
23288;SDS011;11813;50.834;4.280;2022-08-06T13:30:41;1.00;;;0.93;;
23288;SDS011;11813;50.834;4.280;2022-08-06T13:33:26;1.55;;;1.20;;
23288;SDS011;11813;50.834;4.280;2022-08-06T13:35:53;1.50;;;1.20;;
23288;SDS011;11813;50.834;4.280;2022-08-06T13:38:34;3.35;;;1.13;;
23288;SDS011;11813;50.834;4.280;2022-08-06T13:41:01;5.18;;;1.73;;
23288;SDS011;11813;50.834;4.280;2022-08-06T13:43:40;6.57;;;1.40;;
23288;SDS011;11813;50.834;4.280;2022-08-06T13:46:08;1.35;;;1.20;;
23288;SDS011;11813;50.834;4.280;2022-08-06T13:48:43;3.30;;;1.17;;
23288;SDS011;11813;50.834;4.280;2022-08-06T13:51:16;2.63;;;1.30;;
23288;SDS011;11813;50.834;4.280;2022-08-06T13:53:43;3.75;;;1.40;;
23288;SDS011;11813;50.834;4.280;2022-08-06T13:56:09;2.67;;;1.60;;
23288;SDS011;11813;50.834;4.280;2022-08-06T13:58:34;1.85;;;1.27;;
23288;SDS011;11813;50.834;4.280;2022-08-06T14:01:00;2.13;;;1.50;;
23288;SDS011;11813;50.834;4.280;2022-08-06T14:03:26;4.20;;;1.63;;
23288;SDS011;11813;50.834;4.280;2022-08-06T14:05:53;2.35;;;1.40;;
23288;SDS011;11813;50.834;4.280;2022-08-06T14:08:18;1.98;;;1.27;;
23288;SDS011;11813;50.834;4.280;2022-08-06T14:10:45;3.40;;;1.70;;
23288;SDS011;11813;50.834;4.280;2022-08-06T14:13:10;3.17;;;1.50;;
23288;SDS011;11813;50.834;4.280;2022-08-06T14:15:43;5.07;;;1.50;;
23288;SDS011;11813;50.834;4.280;2022-08-06T14:18:13;2.25;;;1.40;;
23288;SDS011;11813;50.834;4.280;2022-08-06T14:20:40;6.43;;;1.40;;
23288;SDS011;11813;50.834;4.280;2022-08-06T14:23:06;5.63;;;1.63;;
23288;SDS011;11813;50.834;4.280;2022-08-06T14:25:31;3.33;;;1.42;;
23288;SDS011;11813;50.834;4.280;2022-08-06T14:27:57;3.35;;;1.60;;
23288;SDS011;11813;50.834;4.280;2022-08-06T14:30:24;2.38;;;1.30;;
23288;SDS011;11813;50.834;4.280;2022-08-06T14:32:50;2.47;;;1.63;;
23288;SDS011;11813;50.834;4.280;2022-08-06T14:35:16;3.15;;;1.58;;
23288;SDS011;11813;50.834;4.280;2022-08-06T14:37:42;2.63;;;1.52;;
23288;SDS011;11813;50.834;4.280;2022-08-06T14:40:07;2.05;;;1.30;;
23288;SDS011;11813;50.834;4.280;2022-08-06T14:42:34;4.28;;;1.50;;
23288;SDS011;11813;50.834;4.280;2022-08-06T14:45:18;1.45;;;1.33;;
23288;SDS011;11813;50.834;4.280;2022-08-06T14:47:43;2.50;;;1.63;;
23288;SDS011;11813;50.834;4.280;2022-08-06T14:50:09;8.35;;;2.08;;
23288;SDS011;11813;50.834;4.280;2022-08-06T14:52:35;3.53;;;1.40;;
23288;SDS011;11813;50.834;4.280;2022-08-06T14:55:00;1.88;;;1.45;;
23288;SDS011;11813;50.834;4.280;2022-08-06T14:57:26;1.70;;;1.50;;
23288;SDS011;11813;50.834;4.280;2022-08-06T14:59:52;3.15;;;1.30;;
23288;SDS011;11813;50.834;4.280;2022-08-06T15:02:19;1.50;;;1.30;;
23288;SDS011;11813;50.834;4.280;2022-08-06T15:04:45;1.98;;;1.52;;
23288;SDS011;11813;50.834;4.280;2022-08-06T15:07:11;3.50;;;1.58;;
23288;SDS011;11813;50.834;4.280;2022-08-06T15:09:37;4.35;;;1.60;;
23288;SDS011;11813;50.834;4.280;2022-08-06T15:12:03;4.95;;;1.70;;
23288;SDS011;11813;50.834;4.280;2022-08-06T15:14:29;2.85;;;1.80;;
23288;SDS011;11813;50.834;4.280;2022-08-06T15:16:54;3.92;;;1.80;;
23288;SDS011;11813;50.834;4.280;2022-08-06T15:19:20;2.05;;;1.70;;
23288;SDS011;11813;50.834;4.280;2022-08-06T15:21:47;4.90;;;1.45;;
23288;SDS011;11813;50.834;4.280;2022-08-06T15:24:13;3.38;;;1.70;;
23288;SDS011;11813;50.834;4.280;2022-08-06T15:26:38;3.28;;;1.63;;
23288;SDS011;11813;50.834;4.280;2022-08-06T15:29:04;6.45;;;1.60;;
23288;SDS011;11813;50.834;4.280;2022-08-06T15:31:30;3.15;;;1.70;;
23288;SDS011;11813;50.834;4.280;2022-08-06T15:33:57;2.22;;;1.60;;
23288;SDS011;11813;50.834;4.280;2022-08-06T15:36:23;5.30;;;1.67;;
23288;SDS011;11813;50.834;4.280;2022-08-06T15:38:49;2.50;;;1.70;;
23288;SDS011;11813;50.834;4.280;2022-08-06T15:41:17;2.83;;;1.75;;
23288;SDS011;11813;50.834;4.280;2022-08-06T15:43:42;2.83;;;1.98;;
23288;SDS011;11813;50.834;4.280;2022-08-06T15:46:09;3.47;;;1.80;;
23288;SDS011;11813;50.834;4.280;2022-08-06T15:48:34;2.65;;;1.45;;
23288;SDS011;11813;50.834;4.280;2022-08-06T15:51:00;2.72;;;1.50;;
23288;SDS011;11813;50.834;4.280;2022-08-06T15:53:26;6.25;;;1.90;;
23288;SDS011;11813;50.834;4.280;2022-08-06T15:55:52;4.05;;;1.60;;
23288;SDS011;11813;50.834;4.280;2022-08-06T15:58:17;4.47;;;2.10;;
23288;SDS011;11813;50.834;4.280;2022-08-06T16:00:43;3.50;;;1.92;;
23288;SDS011;11813;50.834;4.280;2022-08-06T16:03:10;4.13;;;1.70;;
23288;SDS011;11813;50.834;4.280;2022-08-06T16:05:37;6.90;;;2.17;;
23288;SDS011;11813;50.834;4.280;2022-08-06T16:08:04;2.45;;;2.03;;
23288;SDS011;11813;50.834;4.280;2022-08-06T16:10:31;2.00;;;1.80;;